createdAt,value
2019-03-25T00:00:30.789Z,0
2019-03-25T00:01:30.770Z,0
2019-03-25T00:02:30.758Z,0
2019-03-25T00:03:30.745Z,0
2019-03-25T00:04:30.736Z,0
2019-03-25T00:05:30.712Z,0
2019-03-25T00:06:30.697Z,0
2019-03-25T00:07:32.361Z,0
2019-03-25T00:08:30.674Z,0
2019-03-25T00:10:30.637Z,0
2019-03-25T00:13:30.594Z,0
2019-03-25T00:15:30.568Z,0
2019-03-25T00:16:30.554Z,0
2019-03-25T00:18:30.528Z,0
2019-03-25T00:20:30.494Z,0
2019-03-25T00:21:30.483Z,0
2019-03-25T00:22:30.462Z,0
2019-03-25T00:23:30.208Z,0
2019-03-25T00:24:43.008Z,0
2019-03-25T00:25:30.420Z,0
2019-03-25T00:26:30.412Z,0
2019-03-25T00:27:30.393Z,0
2019-03-25T00:29:30.379Z,0
2019-03-25T00:30:30.352Z,0
2019-03-25T00:31:30.336Z,0
2019-03-25T00:32:30.320Z,0
2019-03-25T00:33:30.312Z,0
2019-03-25T00:34:30.304Z,0
2019-03-25T00:35:30.287Z,0
2019-03-25T00:36:30.272Z,0
2019-03-25T00:37:30.276Z,0
2019-03-25T00:38:30.238Z,0
2019-03-25T00:39:30.225Z,0
2019-03-25T00:40:30.213Z,0
2019-03-25T00:41:30.196Z,0
2019-03-25T00:42:30.181Z,0
2019-03-25T00:43:29.926Z,0
2019-03-25T00:44:29.901Z,0
2019-03-25T00:45:30.139Z,0
2019-03-25T00:46:30.133Z,0
2019-03-25T00:47:30.121Z,0
2019-03-25T00:48:30.092Z,0
2019-03-25T00:49:30.119Z,0
2019-03-25T00:50:30.075Z,0
2019-03-25T00:51:30.059Z,0
2019-03-25T00:52:30.082Z,0
2019-03-25T00:53:30.029Z,0
2019-03-25T00:54:30.017Z,0
2019-03-25T00:55:29.997Z,0
2019-03-25T00:56:30.023Z,0
2019-03-25T00:57:29.976Z,0
2019-03-25T00:58:29.953Z,0
2019-03-25T00:59:30.000Z,0
2019-03-25T01:00:29.931Z,0
2019-03-25T01:01:29.922Z,0
2019-03-25T01:02:29.898Z,0
2019-03-25T01:03:29.890Z,0
2019-03-25T01:04:29.897Z,0
2019-03-25T01:05:29.857Z,0
2019-03-25T01:06:29.849Z,0
2019-03-25T01:07:29.831Z,0
2019-03-25T01:08:29.816Z,0
2019-03-25T01:09:29.798Z,0
2019-03-25T01:10:29.786Z,0
2019-03-25T01:11:29.789Z,0
2019-03-25T01:12:29.765Z,0
2019-03-25T01:13:29.766Z,0
2019-03-25T01:14:29.736Z,0
2019-03-25T01:15:29.717Z,0
2019-03-25T01:16:29.701Z,0
2019-03-25T01:17:29.684Z,0
2019-03-25T01:18:29.676Z,0
2019-03-25T01:19:29.663Z,0
2019-03-25T01:20:30.162Z,0
2019-03-25T01:21:29.689Z,0
2019-03-25T01:22:29.618Z,0
2019-03-25T01:23:29.605Z,0
2019-03-25T01:24:29.645Z,0
2019-03-25T01:25:29.573Z,0
2019-03-25T01:26:29.557Z,0
2019-03-25T01:27:29.551Z,0
2019-03-25T01:28:29.531Z,0
2019-03-25T01:29:29.517Z,0
2019-03-25T01:30:29.520Z,0
2019-03-25T01:31:29.495Z,0
2019-03-25T01:32:29.481Z,0
2019-03-25T01:33:29.457Z,0
2019-03-25T01:34:29.447Z,0
2019-03-25T01:35:29.427Z,0
2019-03-25T01:36:29.418Z,0
2019-03-25T01:37:29.408Z,0
2019-03-25T01:38:29.384Z,0
2019-03-25T01:39:29.385Z,0
2019-03-25T01:40:29.359Z,0
2019-03-25T01:41:29.098Z,0
2019-03-25T01:42:29.331Z,0
2019-03-25T01:43:29.328Z,0
2019-03-25T01:44:29.305Z,0
2019-03-25T01:45:29.296Z,0
2019-03-25T01:46:29.272Z,0
2019-03-25T01:47:29.258Z,0
2019-03-25T01:48:29.243Z,0
2019-03-25T01:49:29.230Z,0
2019-03-25T01:50:29.217Z,0
2019-03-25T01:51:29.209Z,0
2019-03-25T01:52:29.184Z,0
2019-03-25T01:53:29.173Z,0
2019-03-25T01:54:29.167Z,0
2019-03-25T01:55:28.902Z,0
2019-03-25T01:56:29.138Z,0
2019-03-25T01:57:29.114Z,0
2019-03-25T01:58:29.107Z,0
2019-03-25T01:59:29.104Z,0
2019-03-25T02:00:29.075Z,0
2019-03-25T02:01:29.060Z,0
2019-03-25T02:02:28.839Z,0
2019-03-25T02:03:29.837Z,0
2019-03-25T02:04:29.020Z,0
2019-03-25T02:05:29.008Z,0
2019-03-25T02:06:28.999Z,0
2019-03-25T02:07:29.004Z,0
2019-03-25T02:08:29.031Z,0
2019-03-25T02:09:28.950Z,0
2019-03-25T02:10:28.935Z,0
2019-03-25T02:11:29.605Z,0
2019-03-25T02:12:28.911Z,0
2019-03-25T02:13:28.908Z,0
2019-03-25T02:14:28.881Z,0
2019-03-25T02:15:28.864Z,0
2019-03-25T02:16:28.852Z,0
2019-03-25T02:17:28.842Z,0
2019-03-25T02:18:28.823Z,0
2019-03-25T02:19:28.814Z,0
2019-03-25T02:20:33.733Z,0
2019-03-25T02:21:28.784Z,0
2019-03-25T02:22:28.941Z,0
2019-03-25T02:23:28.802Z,0
2019-03-25T02:24:28.743Z,0
2019-03-25T02:25:32.794Z,0
2019-03-25T02:26:28.720Z,0
2019-03-25T02:27:28.697Z,0
2019-03-25T02:28:28.687Z,0
2019-03-25T02:29:28.750Z,0
2019-03-25T02:30:28.417Z,0
2019-03-25T02:31:28.412Z,0
2019-03-25T02:32:28.648Z,0
2019-03-25T02:33:28.623Z,0
2019-03-25T02:34:28.631Z,0
2019-03-25T02:35:28.595Z,0
2019-03-25T02:36:28.576Z,0
2019-03-25T02:37:28.587Z,0
2019-03-25T02:38:28.562Z,0
2019-03-25T02:39:28.572Z,0
2019-03-25T02:40:28.550Z,0
2019-03-25T02:41:28.284Z,0
2019-03-25T02:42:28.505Z,0
2019-03-25T02:43:28.485Z,0
2019-03-25T02:44:28.500Z,0
2019-03-25T02:45:28.472Z,0
2019-03-25T02:46:28.453Z,0
2019-03-25T02:47:28.443Z,0
2019-03-25T02:48:28.448Z,0
2019-03-25T02:49:28.451Z,0
2019-03-25T02:50:28.390Z,0
2019-03-25T02:51:28.414Z,0
2019-03-25T02:52:28.365Z,0
2019-03-25T02:53:28.368Z,0
2019-03-25T02:54:28.341Z,0
2019-03-25T02:55:42.908Z,0
2019-03-25T02:56:28.331Z,0
2019-03-25T02:57:28.293Z,0
2019-03-25T02:58:28.448Z,0
2019-03-25T02:59:28.291Z,0
2019-03-25T03:00:28.010Z,0
2019-03-25T03:01:28.245Z,0
2019-03-25T03:02:28.251Z,0
2019-03-25T03:03:28.233Z,0
2019-03-25T03:04:28.336Z,0
2019-03-25T03:05:28.210Z,0
2019-03-25T03:06:28.180Z,0
2019-03-25T03:07:28.159Z,0
2019-03-25T03:08:28.157Z,0
2019-03-25T03:09:28.156Z,0
2019-03-25T03:10:28.117Z,0
2019-03-25T03:11:28.135Z,0
2019-03-25T03:12:28.102Z,4
2019-03-25T03:13:28.086Z,4
2019-03-25T03:14:28.081Z,4
2019-03-25T03:15:28.043Z,4
2019-03-25T03:16:28.049Z,4
2019-03-25T03:17:28.043Z,4
2019-03-25T03:18:28.059Z,0
2019-03-25T03:19:28.027Z,0
2019-03-25T03:20:27.976Z,0
2019-03-25T03:21:27.992Z,0
2019-03-25T03:22:28.006Z,0
2019-03-25T03:23:28.180Z,0
2019-03-25T03:24:27.927Z,0
2019-03-25T03:25:27.925Z,0
2019-03-25T03:26:27.902Z,0
2019-03-25T03:27:29.830Z,0
2019-03-25T03:28:27.871Z,0
2019-03-25T03:29:27.849Z,0
2019-03-25T03:30:27.710Z,0
2019-03-25T03:31:27.901Z,0
2019-03-25T03:32:27.873Z,0
2019-03-25T03:33:27.919Z,0
2019-03-25T03:34:28.197Z,0
2019-03-25T03:35:27.819Z,0
2019-03-25T03:36:27.753Z,0
2019-03-25T03:37:27.762Z,0
2019-03-25T03:38:27.729Z,0
2019-03-25T03:39:27.722Z,0
2019-03-25T03:40:27.455Z,0
2019-03-25T03:41:27.691Z,0
2019-03-25T03:42:27.777Z,0
2019-03-25T03:43:27.673Z,0
2019-03-25T03:44:27.646Z,0
2019-03-25T03:45:27.632Z,0
2019-03-25T03:46:27.638Z,0
2019-03-25T03:47:27.621Z,0
2019-03-25T03:48:27.348Z,0
2019-03-25T03:49:27.604Z,0
2019-03-25T03:50:27.558Z,0
2019-03-25T03:51:27.569Z,0
2019-03-25T03:52:27.531Z,0
2019-03-25T03:53:27.537Z,0
2019-03-25T03:54:27.521Z,0
2019-03-25T03:55:27.248Z,0
2019-03-25T03:56:27.477Z,0
2019-03-25T03:57:27.467Z,0
2019-03-25T03:58:27.448Z,0
2019-03-25T03:59:27.545Z,0
2019-03-25T04:00:27.429Z,0
2019-03-25T04:01:27.421Z,0
2019-03-25T04:02:27.395Z,0
2019-03-25T04:03:27.375Z,0
2019-03-25T04:04:27.369Z,0
2019-03-25T04:05:27.344Z,0
2019-03-25T04:06:27.375Z,0
2019-03-25T04:07:27.342Z,0
2019-03-25T04:08:27.300Z,0
2019-03-25T04:09:27.326Z,0
2019-03-25T04:10:27.291Z,0
2019-03-25T04:11:27.265Z,0
2019-03-25T04:12:27.260Z,0
2019-03-25T04:13:27.254Z,0
2019-03-25T04:14:27.246Z,0
2019-03-25T04:15:27.228Z,0
2019-03-25T04:16:27.198Z,0
2019-03-25T04:17:27.198Z,0
2019-03-25T04:18:27.172Z,0
2019-03-25T04:19:27.206Z,0
2019-03-25T04:20:27.142Z,0
2019-03-25T04:21:27.135Z,0
2019-03-25T04:22:27.120Z,0
2019-03-25T04:23:27.117Z,0
2019-03-25T04:24:26.856Z,0
2019-03-25T04:25:27.069Z,0
2019-03-25T04:26:35.923Z,0
2019-03-25T04:27:27.036Z,4
2019-03-25T04:28:26.788Z,4
2019-03-25T04:29:27.016Z,0
2019-03-25T04:30:27.080Z,4
2019-03-25T04:31:26.993Z,4
2019-03-25T04:32:26.495Z,4
2019-03-25T04:33:26.958Z,8
2019-03-25T04:34:26.938Z,8
2019-03-25T04:35:26.939Z,12
2019-03-25T04:36:26.910Z,12
2019-03-25T04:37:26.899Z,16
2019-03-25T04:38:26.894Z,20
2019-03-25T04:39:26.878Z,24
2019-03-25T04:40:26.878Z,28
2019-03-25T04:41:26.843Z,28
2019-03-25T04:42:26.845Z,32
2019-03-25T04:43:26.823Z,40
2019-03-25T04:44:26.796Z,44
2019-03-25T04:45:26.783Z,48
2019-03-25T04:46:26.835Z,60
2019-03-25T04:47:26.758Z,68
2019-03-25T04:48:26.739Z,72
2019-03-25T04:49:26.723Z,84
2019-03-25T04:50:26.712Z,96
2019-03-25T04:51:26.699Z,108
2019-03-25T04:52:26.680Z,124
2019-03-25T04:53:26.671Z,148
2019-03-25T04:54:26.658Z,164
2019-03-25T04:55:26.647Z,192
2019-03-25T04:56:26.661Z,220
2019-03-25T04:57:26.612Z,244
2019-03-25T04:58:26.595Z,268
2019-03-25T04:59:26.582Z,288
2019-03-25T05:00:26.568Z,312
2019-03-25T05:01:26.556Z,340
2019-03-25T05:02:26.542Z,368
2019-03-25T05:03:26.534Z,400
2019-03-25T05:04:26.513Z,436
2019-03-25T05:05:26.495Z,472
2019-03-25T05:06:26.521Z,508
2019-03-25T05:07:26.467Z,544
2019-03-25T05:08:26.457Z,564
2019-03-25T05:09:26.446Z,600
2019-03-25T05:10:26.181Z,636
2019-03-25T05:11:37.359Z,676
2019-03-25T05:12:26.399Z,692
2019-03-25T05:13:26.388Z,704
2019-03-25T05:14:26.373Z,728
2019-03-25T05:15:26.366Z,808
2019-03-25T05:16:26.346Z,952
2019-03-25T05:17:26.329Z,1112
2019-03-25T05:18:26.324Z,1228
2019-03-25T05:19:26.320Z,1392
2019-03-25T05:20:26.286Z,1564
2019-03-25T05:21:26.265Z,1744
2019-03-25T05:22:26.266Z,1932
2019-03-25T05:23:26.246Z,2092
2019-03-25T05:24:26.230Z,2172
2019-03-25T05:25:26.211Z,2008
2019-03-25T05:26:26.211Z,1644
2019-03-25T05:27:26.186Z,1256
2019-03-25T05:28:26.171Z,1032
2019-03-25T05:29:26.158Z,1032
2019-03-25T05:30:27.773Z,1072
2019-03-25T05:31:26.133Z,1404
2019-03-25T05:32:26.117Z,972
2019-03-25T05:33:26.101Z,604
2019-03-25T05:34:25.842Z,660
2019-03-25T05:35:26.074Z,712
2019-03-25T05:36:26.074Z,740
2019-03-25T05:37:26.050Z,860
2019-03-25T05:38:26.048Z,1052
2019-03-25T05:39:26.020Z,1124
2019-03-25T05:40:26.006Z,1104
2019-03-25T05:41:26.001Z,1008
2019-03-25T05:42:25.984Z,892
2019-03-25T05:43:28.215Z,836
2019-03-25T05:44:25.956Z,756
2019-03-25T05:45:25.954Z,692
2019-03-25T05:46:25.931Z,636
2019-03-25T05:47:25.920Z,532
2019-03-25T05:48:25.902Z,484
2019-03-25T05:49:25.897Z,492
2019-03-25T05:50:25.881Z,480
2019-03-25T05:51:25.863Z,492
2019-03-25T05:52:25.849Z,536
2019-03-25T05:53:25.841Z,620
2019-03-25T05:54:25.842Z,776
2019-03-25T05:55:25.815Z,960
2019-03-25T05:56:25.803Z,1104
2019-03-25T05:57:25.786Z,1412
2019-03-25T05:58:25.781Z,1880
2019-03-25T05:59:25.760Z,2344
2019-03-25T06:00:25.747Z,2800
2019-03-25T06:01:25.737Z,3436
2019-03-25T06:02:25.723Z,4196
2019-03-25T06:03:25.765Z,4584
2019-03-25T06:04:25.449Z,4460
2019-03-25T06:05:25.685Z,3908
2019-03-25T06:06:25.711Z,3380
2019-03-25T06:07:25.665Z,3068
2019-03-25T06:08:25.650Z,2784
2019-03-25T06:09:25.642Z,2380
2019-03-25T06:10:25.621Z,1896
2019-03-25T06:11:25.609Z,1528
2019-03-25T06:12:25.601Z,1320
2019-03-25T06:13:25.586Z,1228
2019-03-25T06:14:25.578Z,1240
2019-03-25T06:15:25.569Z,1148
2019-03-25T06:17:25.536Z,980
2019-03-25T06:18:27.679Z,1028
2019-03-25T06:21:25.488Z,1644
2019-03-25T06:23:28.587Z,1820
2019-03-25T06:24:25.448Z,2136
2019-03-25T06:25:25.540Z,2480
2019-03-25T06:26:25.425Z,2428
2019-03-25T06:28:25.411Z,3040
2019-03-25T06:30:25.385Z,2772
2019-03-25T06:31:25.361Z,2520
2019-03-25T06:34:25.332Z,1380
2019-03-25T06:35:25.316Z,1296
2019-03-25T06:36:25.307Z,1272
2019-03-25T06:37:25.285Z,1432
2019-03-25T06:38:25.034Z,1568
2019-03-25T06:39:25.271Z,1572
2019-03-25T06:40:25.253Z,1624
2019-03-25T06:41:25.235Z,1348
2019-03-25T06:42:24.984Z,1548
2019-03-25T06:43:25.210Z,1620
2019-03-25T06:44:25.291Z,1572
2019-03-25T06:46:27.045Z,1688
2019-03-25T06:47:24.919Z,1592
2019-03-25T06:48:25.183Z,1488
2019-03-25T06:51:25.112Z,1448
2019-03-25T06:52:25.092Z,1880
2019-03-25T06:53:25.083Z,2104
2019-03-25T06:54:25.078Z,2180
2019-03-25T06:55:25.060Z,1820
2019-03-25T06:56:27.518Z,2240
2019-03-25T06:57:32.878Z,2136
2019-03-25T06:58:25.022Z,2184
2019-03-25T06:59:24.999Z,2176
2019-03-25T07:00:24.990Z,2604
2019-03-25T07:01:24.974Z,3100
2019-03-25T07:02:28.741Z,2988
2019-03-25T07:03:24.950Z,2708
2019-03-25T07:04:28.665Z,2552
2019-03-25T07:05:26.236Z,2396
2019-03-25T07:06:24.905Z,2748
2019-03-25T07:07:24.641Z,3060
2019-03-25T07:08:24.887Z,3352
2019-03-25T07:11:27.356Z,2728
2019-03-25T07:12:24.583Z,2368
2019-03-25T07:13:24.810Z,2224
2019-03-25T07:14:24.799Z,2284
2019-03-25T07:15:24.790Z,2008
2019-03-25T07:16:24.774Z,2016
2019-03-25T07:17:24.504Z,1784
2019-03-25T07:18:24.754Z,1836
2019-03-25T07:19:27.251Z,1608
2019-03-25T07:22:25.896Z,1508
2019-03-25T07:24:24.674Z,1504
2019-03-25T07:26:24.630Z,1440
2019-03-25T07:27:24.639Z,1408
2019-03-25T07:28:24.608Z,1460
2019-03-25T07:29:24.598Z,1680
2019-03-25T07:30:24.576Z,1640
2019-03-25T07:31:24.566Z,1756
2019-03-25T07:32:24.552Z,1900
2019-03-25T07:33:24.533Z,2208
2019-03-25T07:34:24.568Z,2208
2019-03-25T07:35:26.961Z,2160
2019-03-25T07:36:24.496Z,2260
2019-03-25T07:37:26.240Z,2720
2019-03-25T07:38:24.471Z,2908
2019-03-25T07:39:24.456Z,2884
2019-03-25T07:40:24.491Z,3128
2019-03-25T07:41:24.420Z,3160
2019-03-25T07:42:24.435Z,3372
2019-03-25T07:43:24.396Z,3688
2019-03-25T07:44:24.382Z,4012
2019-03-25T07:45:24.362Z,4172
2019-03-25T07:46:24.352Z,4572
2019-03-25T07:47:24.334Z,4824
2019-03-25T07:48:24.322Z,4756
2019-03-25T07:49:24.310Z,4916
2019-03-25T07:50:24.301Z,5380
2019-03-25T07:51:24.279Z,5376
2019-03-25T07:52:24.271Z,5396
2019-03-25T07:53:24.277Z,5708
2019-03-25T07:54:24.282Z,6320
2019-03-25T07:55:24.260Z,6300
2019-03-25T07:56:24.245Z,7100
2019-03-25T07:57:24.272Z,6444
2019-03-25T07:58:24.214Z,5212
2019-03-25T07:59:27.201Z,5040
2019-03-25T08:00:24.205Z,6160
2019-03-25T08:01:24.156Z,6476
2019-03-25T08:02:24.186Z,6692
2019-03-25T08:03:24.190Z,6620
2019-03-25T08:04:24.137Z,6904
2019-03-25T08:05:24.137Z,6848
2019-03-25T08:06:24.118Z,7088
2019-03-25T08:07:24.078Z,7144
2019-03-25T08:08:24.083Z,6900
2019-03-25T08:09:24.091Z,6568
2019-03-25T08:10:24.047Z,5796
2019-03-25T08:11:24.042Z,6488
2019-03-25T08:12:24.095Z,6036
2019-03-25T08:13:24.531Z,6224
2019-03-25T08:14:24.074Z,6424
2019-03-25T08:15:24.000Z,5728
2019-03-25T08:16:23.992Z,6104
2019-03-25T08:17:23.688Z,6164
2019-03-25T08:18:23.915Z,6980
2019-03-25T08:19:23.905Z,6544
2019-03-25T08:20:23.885Z,6900
2019-03-25T08:21:25.018Z,5856
2019-03-25T08:22:23.896Z,4960
2019-03-25T08:23:23.852Z,5356
2019-03-25T08:24:23.892Z,4696
2019-03-25T08:25:23.824Z,4492
2019-03-25T08:26:23.816Z,4612
2019-03-25T08:27:23.810Z,5176
2019-03-25T08:28:23.785Z,6704
2019-03-25T08:29:23.774Z,8192
2019-03-25T08:30:23.772Z,6076
2019-03-25T08:31:23.743Z,6548
2019-03-25T08:32:23.731Z,7840
2019-03-25T08:33:23.496Z,7168
2019-03-25T08:34:23.716Z,6892
2019-03-25T08:35:23.721Z,6644
2019-03-25T08:36:23.688Z,5968
2019-03-25T08:37:23.669Z,6832
2019-03-25T08:38:23.661Z,6780
2019-03-25T08:39:23.651Z,6864
2019-03-25T08:40:23.683Z,8004
2019-03-25T08:41:23.621Z,9916
2019-03-25T08:42:23.603Z,12276
2019-03-25T08:43:23.596Z,9752
2019-03-25T08:44:23.588Z,10008
2019-03-25T08:45:23.572Z,9308
2019-03-25T08:46:23.555Z,9260
2019-03-25T08:47:23.541Z,11080
2019-03-25T08:48:23.594Z,8476
2019-03-25T08:49:23.520Z,9056
2019-03-25T08:50:23.513Z,8484
2019-03-25T08:51:23.495Z,6820
2019-03-25T08:52:23.489Z,7412
2019-03-25T08:53:23.225Z,6180
2019-03-25T08:54:23.458Z,5304
2019-03-25T08:55:23.466Z,5120
2019-03-25T08:56:23.441Z,5988
2019-03-25T08:57:23.428Z,5096
2019-03-25T08:58:23.420Z,7056
2019-03-25T08:59:23.411Z,7176
2019-03-25T09:00:23.432Z,6568
2019-03-25T09:01:23.381Z,7380
2019-03-25T09:02:23.367Z,5884
2019-03-25T09:03:23.365Z,6292
2019-03-25T09:04:23.386Z,6128
2019-03-25T09:05:23.333Z,6020
2019-03-25T09:06:23.321Z,5728
2019-03-25T09:07:23.323Z,5280
2019-03-25T09:08:23.056Z,5100
2019-03-25T09:09:23.295Z,4920
2019-03-25T09:10:23.275Z,4308
2019-03-25T09:11:23.268Z,4268
2019-03-25T09:12:23.253Z,3952
2019-03-25T09:13:23.249Z,4512
2019-03-25T09:14:23.229Z,4040
2019-03-25T09:15:23.213Z,4356
2019-03-25T09:16:23.209Z,5160
2019-03-25T09:17:22.944Z,6228
2019-03-25T09:18:23.181Z,6916
2019-03-25T09:19:23.173Z,7108
2019-03-25T09:20:23.191Z,7060
2019-03-25T09:21:23.151Z,7952
2019-03-25T09:22:23.144Z,8484
2019-03-25T09:23:23.121Z,6776
2019-03-25T09:24:23.120Z,7156
2019-03-25T09:25:23.101Z,7940
2019-03-25T09:26:22.842Z,8896
2019-03-25T09:27:23.121Z,11116
2019-03-25T09:28:31.370Z,14920
2019-03-25T09:29:23.059Z,13480
2019-03-25T09:30:23.042Z,9804
2019-03-25T09:31:23.039Z,8200
2019-03-25T09:32:23.020Z,8320
2019-03-25T09:33:23.043Z,9196
2019-03-25T09:34:23.004Z,9292
2019-03-25T09:35:22.983Z,9572
2019-03-25T09:36:22.980Z,10024
2019-03-25T09:37:22.990Z,10156
2019-03-25T09:38:22.959Z,10444
2019-03-25T09:39:22.945Z,10404
2019-03-25T09:40:22.930Z,10468
2019-03-25T09:41:22.695Z,9264
2019-03-25T09:42:22.915Z,11020
2019-03-25T09:43:22.895Z,12656
2019-03-25T09:44:22.893Z,15928
2019-03-25T09:45:22.891Z,15720
2019-03-25T09:46:22.870Z,15200
2019-03-25T09:47:22.860Z,15396
2019-03-25T09:48:22.853Z,16224
2019-03-25T09:49:22.835Z,16992
2019-03-25T09:50:22.824Z,17504
2019-03-25T09:51:22.817Z,18208
2019-03-25T09:53:22.794Z,20704
2019-03-25T09:54:22.784Z,18080
2019-03-25T09:55:26.556Z,16032
2019-03-25T09:56:22.776Z,16576
2019-03-25T09:57:24.394Z,17152
2019-03-25T09:58:22.774Z,15672
2019-03-25T09:59:22.738Z,16288
2019-03-25T10:00:22.732Z,14572
2019-03-25T10:01:22.730Z,16128
2019-03-25T10:02:22.720Z,19424
2019-03-25T10:03:22.699Z,18944
2019-03-25T10:04:24.946Z,18784
2019-03-25T10:05:22.680Z,18176
2019-03-25T10:06:22.464Z,17024
2019-03-25T10:07:22.661Z,16512
2019-03-25T10:08:22.653Z,18880
2019-03-25T10:09:22.646Z,18656
2019-03-25T10:10:22.659Z,19392
2019-03-25T10:11:22.632Z,19328
2019-03-25T10:12:22.619Z,19840
2019-03-25T10:13:22.620Z,19488
2019-03-25T10:14:22.614Z,19552
2019-03-25T10:15:22.595Z,20864
2019-03-25T10:16:22.589Z,20640
2019-03-25T10:17:22.583Z,20320
2019-03-25T10:18:22.572Z,19520
2019-03-25T10:19:22.584Z,19232
2019-03-25T10:20:22.572Z,20064
2019-03-25T10:21:22.552Z,19808
2019-03-25T10:22:22.544Z,19904
2019-03-25T10:23:22.534Z,19200
2019-03-25T10:24:30.214Z,20096
2019-03-25T10:25:22.521Z,17760
2019-03-25T10:26:22.512Z,14848
2019-03-25T10:28:22.496Z,10512
2019-03-25T10:29:22.491Z,8212
2019-03-25T10:30:22.481Z,7092
2019-03-25T10:32:22.476Z,8020
2019-03-25T10:33:22.209Z,10064
2019-03-25T10:34:22.453Z,13644
2019-03-25T10:35:22.443Z,16416
2019-03-25T10:36:22.502Z,18624
2019-03-25T10:37:22.181Z,20576
2019-03-25T10:38:26.990Z,19712
2019-03-25T10:39:22.431Z,18208
2019-03-25T10:40:22.411Z,16544
2019-03-25T10:41:22.399Z,16480
2019-03-25T10:42:22.140Z,16992
2019-03-25T10:43:22.388Z,19264
2019-03-25T10:44:22.375Z,19680
2019-03-25T10:45:22.374Z,19264
2019-03-25T10:46:22.429Z,16384
2019-03-25T10:47:22.103Z,14292
2019-03-25T10:48:22.349Z,15144
2019-03-25T10:49:23.583Z,15748
2019-03-25T10:50:22.346Z,15544
2019-03-25T10:51:22.327Z,14252
2019-03-25T10:52:22.065Z,10748
2019-03-25T10:53:22.352Z,8244
2019-03-25T10:54:22.473Z,8456
2019-03-25T10:55:22.315Z,9536
2019-03-25T10:56:22.041Z,11252
2019-03-25T10:57:22.279Z,11708
2019-03-25T10:58:22.272Z,11692
2019-03-25T10:59:22.261Z,14048
2019-03-25T11:00:22.270Z,18400
2019-03-25T11:01:22.261Z,19200
2019-03-25T11:02:21.995Z,20384
2019-03-25T11:03:22.230Z,22592
2019-03-25T11:04:22.221Z,21984
2019-03-25T11:05:22.215Z,18880
2019-03-25T11:06:22.245Z,16640
2019-03-25T11:07:22.274Z,18400
2019-03-25T11:08:22.212Z,16512
2019-03-25T11:09:21.945Z,16960
2019-03-25T11:10:22.177Z,15332
2019-03-25T11:11:22.171Z,14408
2019-03-25T11:12:21.918Z,15984
2019-03-25T11:13:22.158Z,17920
2019-03-25T11:14:22.150Z,18528
2019-03-25T11:15:22.142Z,19040
2019-03-25T11:16:22.136Z,19808
2019-03-25T11:17:22.129Z,19648
2019-03-25T11:18:22.119Z,19360
2019-03-25T11:19:22.108Z,19904
2019-03-25T11:20:22.099Z,20512
2019-03-25T11:21:22.098Z,20928
2019-03-25T11:22:22.087Z,20800
2019-03-25T11:23:22.080Z,20928
2019-03-25T11:24:22.404Z,20992
2019-03-25T11:25:22.067Z,20256
2019-03-25T11:26:22.058Z,18912
2019-03-25T11:27:22.051Z,17888
2019-03-25T11:28:22.044Z,17952
2019-03-25T11:29:22.048Z,20896
2019-03-25T11:30:22.034Z,21824
2019-03-25T11:31:22.026Z,20640
2019-03-25T11:32:22.022Z,20192
2019-03-25T11:33:22.019Z,18752
2019-03-25T11:34:22.006Z,17952
2019-03-25T11:35:22.007Z,18912
2019-03-25T11:36:21.749Z,19616
2019-03-25T11:37:21.986Z,20192
2019-03-25T11:38:21.977Z,20032
2019-03-25T11:39:21.978Z,18848
2019-03-25T11:40:21.969Z,18912
2019-03-25T11:41:21.998Z,18944
2019-03-25T11:42:21.955Z,18400
2019-03-25T11:43:21.957Z,18144
2019-03-25T11:44:21.943Z,16096
2019-03-25T11:45:21.940Z,11052
2019-03-25T11:46:21.933Z,9736
2019-03-25T11:47:23.782Z,12976
2019-03-25T11:48:21.921Z,16768
2019-03-25T11:49:21.914Z,20096
2019-03-25T11:50:21.906Z,20256
2019-03-25T11:51:21.925Z,17600
2019-03-25T11:52:21.651Z,16352
2019-03-25T11:53:21.897Z,17280
2019-03-25T11:54:21.888Z,19104
2019-03-25T11:55:22.654Z,19136
2019-03-25T11:56:21.626Z,18240
2019-03-25T11:57:21.863Z,17376
2019-03-25T11:58:21.864Z,16000
2019-03-25T11:59:26.045Z,12784
2019-03-25T12:00:23.349Z,12160
2019-03-25T12:01:21.593Z,11980
2019-03-25T12:02:25.009Z,10768
2019-03-25T12:03:21.829Z,8692
2019-03-25T12:04:21.820Z,7056
2019-03-25T12:05:21.823Z,5784
2019-03-25T12:06:21.810Z,5604
2019-03-25T12:07:21.803Z,5260
2019-03-25T12:08:21.814Z,5224
2019-03-25T12:09:21.791Z,5100
2019-03-25T12:10:21.781Z,5000
2019-03-25T12:11:23.638Z,4936
2019-03-25T12:12:21.766Z,4896
2019-03-25T12:13:21.770Z,4876
2019-03-25T12:14:21.776Z,4856
2019-03-25T12:15:21.745Z,4832
2019-03-25T12:16:21.737Z,4796
2019-03-25T12:17:21.731Z,4760
2019-03-25T12:18:21.742Z,4700
2019-03-25T12:19:21.713Z,4632
2019-03-25T12:20:21.703Z,4616
2019-03-25T12:21:21.694Z,4736
2019-03-25T12:22:21.442Z,4940
2019-03-25T12:23:31.035Z,5440
2019-03-25T12:24:21.671Z,5856
2019-03-25T12:25:21.663Z,5628
2019-03-25T12:26:21.664Z,6108
2019-03-25T12:27:21.910Z,6180
2019-03-25T12:28:23.276Z,6268
2019-03-25T12:29:32.291Z,6308
2019-03-25T12:30:21.623Z,7448
2019-03-25T12:31:21.608Z,8696
2019-03-25T12:32:21.609Z,8576
2019-03-25T12:33:21.595Z,6168
2019-03-25T12:34:22.083Z,5524
2019-03-25T12:35:21.586Z,7176
2019-03-25T12:36:21.571Z,8748
2019-03-25T12:37:21.556Z,8460
2019-03-25T12:38:21.547Z,7972
2019-03-25T12:39:21.538Z,9568
2019-03-25T12:40:21.526Z,11944
2019-03-25T12:41:21.523Z,13520
2019-03-25T12:42:21.518Z,12648
2019-03-25T12:43:21.503Z,12380
2019-03-25T12:44:21.243Z,14096
2019-03-25T12:45:21.481Z,17408
2019-03-25T12:46:21.489Z,17728
2019-03-25T12:47:21.471Z,17056
2019-03-25T12:48:21.458Z,14560
2019-03-25T12:49:21.451Z,12200
2019-03-25T12:50:21.449Z,10528
2019-03-25T12:51:21.432Z,9812
2019-03-25T12:52:21.425Z,9604
2019-03-25T12:53:21.423Z,9968
2019-03-25T12:54:21.410Z,10332
2019-03-25T12:55:21.398Z,9820
2019-03-25T12:56:21.412Z,9056
2019-03-25T12:57:21.388Z,8436
2019-03-25T12:58:21.378Z,7804
2019-03-25T12:59:21.373Z,7132
2019-03-25T13:00:21.363Z,6496
2019-03-25T13:01:21.355Z,5916
2019-03-25T13:02:21.349Z,5456
2019-03-25T13:03:21.340Z,5184
2019-03-25T13:04:21.331Z,5004
2019-03-25T13:05:21.351Z,4896
2019-03-25T13:06:21.317Z,4800
2019-03-25T13:07:21.307Z,4752
2019-03-25T13:08:21.054Z,4772
2019-03-25T13:09:21.287Z,4672
2019-03-25T13:10:21.589Z,4656
2019-03-25T13:11:21.270Z,4700
2019-03-25T13:12:21.262Z,4652
2019-03-25T13:13:21.261Z,4692
2019-03-25T13:14:21.245Z,4680
2019-03-25T13:15:21.239Z,4796
2019-03-25T13:16:21.233Z,4800
2019-03-25T13:17:20.983Z,4856
2019-03-25T13:18:21.212Z,4968
2019-03-25T13:19:21.209Z,4884
2019-03-25T13:20:22.744Z,4872
2019-03-25T13:21:21.188Z,4856
2019-03-25T13:22:21.175Z,4888
2019-03-25T13:23:21.175Z,4928
2019-03-25T13:24:21.156Z,4996
2019-03-25T13:25:20.898Z,5096
2019-03-25T13:26:21.137Z,5196
2019-03-25T13:27:21.143Z,5324
2019-03-25T13:28:21.126Z,5472
2019-03-25T13:29:21.118Z,5640
2019-03-25T13:30:21.104Z,5824
2019-03-25T13:31:21.100Z,5976
2019-03-25T13:32:20.838Z,6196
2019-03-25T13:33:21.076Z,6404
2019-03-25T13:34:21.072Z,6564
2019-03-25T13:35:21.081Z,6716
2019-03-25T13:36:21.047Z,6748
2019-03-25T13:37:21.040Z,6780
2019-03-25T13:38:21.028Z,6920
2019-03-25T13:39:21.020Z,7092
2019-03-25T13:40:21.020Z,7232
2019-03-25T13:41:20.767Z,7540
2019-03-25T13:42:20.987Z,7876
2019-03-25T13:43:20.977Z,8096
2019-03-25T13:44:20.976Z,8160
2019-03-25T13:45:20.976Z,8168
2019-03-25T13:46:20.948Z,8016
2019-03-25T13:47:20.963Z,7704
2019-03-25T13:48:20.933Z,7640
2019-03-25T13:49:20.921Z,7828
2019-03-25T13:50:22.617Z,8200
2019-03-25T13:51:20.903Z,8880
2019-03-25T13:52:20.899Z,9728
2019-03-25T13:53:20.891Z,10536
2019-03-25T13:54:20.893Z,11116
2019-03-25T13:55:20.870Z,11684
2019-03-25T13:56:20.858Z,12308
2019-03-25T13:57:20.864Z,12900
2019-03-25T13:58:20.843Z,13540
2019-03-25T13:59:20.839Z,14412
2019-03-25T14:00:20.826Z,15256
2019-03-25T14:01:20.812Z,15556
2019-03-25T14:02:20.802Z,15380
2019-03-25T14:03:20.796Z,15064
2019-03-25T14:04:20.795Z,15044
2019-03-25T14:05:20.525Z,15152
2019-03-25T14:06:20.767Z,15272
2019-03-25T14:07:20.796Z,15316
2019-03-25T14:08:20.748Z,15312
2019-03-25T14:09:20.744Z,15224